Absaraka, ND (58002)

9:07 PM CST on December 08, 2016 (GMT -0600)
Home of the Absaraka Crows | | Change Station

Elev 1066 ft 46.98 °N, 97.39 °W | Updated 2 seconds ago

Mostly Cloudy
Mostly Cloudy
1.8 °F
Feels Like -12 °F
N
8.3
Wind Variable Wind from West
Gusts 9.2 mph

Today
High -- | Low -- °F
--% Chance of Precip.
Yesterday
High -- | Low -- °F
Precip. -- in
Pressure 30.66 in
Visibility 9.0 miles
Clouds Few 1800 ft
Overcast 3100 ft
Windchill -12 °F
Dew Point -1 °F
Humidity 87%
Rainfall 0.00 in
Snow Depth Not available.
8:02 AM 4:40 PM
Waxing Gibbous, 69% visible
METAR KFAR 090253Z 30010KT 9SM -SN FEW018 OVC031 M14/M18 A3059 RMK AO2 SNB16 SLP382 P0000 60000 T11441183 50002
Pressure 30.66 in
Visibility 9.0 miles
Clouds Few 1800 ft
Overcast 3100 ft
Windchill -12 °F
Dew Point -1 °F
Humidity 87%
Rainfall 0.00 in
Snow Depth Not available.
8:02 AM 4:40 PM
Waxing Gibbous, 69% visible
METAR KFAR 090253Z 30010KT 9SM -SN FEW018 OVC031 M14/M18 A3059 RMK AO2 SNB16 SLP382 P0000 60000 T11441183 50002

10-Day Weather Forecast

Almanac

Astronomy

Dec. 08, 2016 Rise Set
Actual Time
Civil Twilight
Nautical Twilight
Astronomical Twilight
Moon
Length of Visible Light
Length of Day
Tomorrow will be .
, % of the Moon is Illuminated

Today's Extremes

State Highs State Lows

Community

WunderPhotos

Upload Photos

1,956,351 photos uploaded!

WunderBlog® & News

Nearby

Air Quality

  Air Quality AQ Index Pollutant
Not available.

Snow Depth

Station Depth Elevation

Earthquake Activity

City Distance Mag. Time & Date
Minimum magnitude displayed is 2.5.

Coastal Water Temperatures

Place Temperature

Stations

Nearby Weather Stations

Station Location Temp. Windchill Dew Point Humidity Wind Precip. Elev Updated Type
                   

Watches & Warnings

There are currently no watches in effect.